Time;durP1;ratioP1;P1;durP2;ratioP2;P2;SDS_P1;SDS_P2;PMS_P1;PMS_P2;Temp;Humidity;BMP_temperature;BMP_pressure;BME280_temperature;BME280_humidity;BME280_pressure;Samples;Min_cycle;Max_cycle;Signal;HPM_P1;HPM_P2
2023/03/25 00:00:31;;;;;;;15.88;3.10;;;;;;;8.12;100.00;100082.34;5073316;28;20036;-70
2023/03/25 00:02:57;;;;;;;17.80;2.90;;;;;;;8.15;100.00;100075.31;5072832;28;20117;-69
2023/03/25 00:05:23;;;;;;;18.20;3.50;;;;;;;8.17;100.00;100073.59;5073200;28;20097;-69
2023/03/25 00:07:51;;;;;;;14.65;2.88;;;;;;;8.15;100.00;100077.09;5071504;28;20044;-69
2023/03/25 00:10:17;;;;;;;16.17;3.05;;;;;;;8.18;100.00;100082.34;5071405;28;20386;-70
2023/03/25 00:12:43;;;;;;;15.23;2.72;;;;;;;8.23;100.00;100090.25;5072884;28;20103;-70
2023/03/25 00:15:11;;;;;;;16.45;3.10;;;;;;;8.18;100.00;100093.78;5072523;28;20082;-69
2023/03/25 00:17:37;;;;;;;16.80;3.20;;;;;;;8.19;100.00;100090.25;5072559;28;20035;-69
2023/03/25 00:20:10;;;;;;;15.98;2.90;;;;;;;8.14;100.00;100076.22;5072637;28;20051;-70
2023/03/25 00:22:39;;;;;;;19.95;3.58;;;;;;;8.12;100.00;100095.53;5072789;28;20105;-69
2023/03/25 00:25:17;;;;;;;16.98;2.80;;;;;;;8.11;100.00;100085.84;5072448;28;20108;-69
2023/03/25 00:27:45;;;;;;;17.25;2.90;;;;;;;8.09;100.00;100067.41;5072731;28;20033;-70
2023/03/25 00:30:11;;;;;;;14.27;2.90;;;;;;;7.98;100.00;100070.03;5072664;28;20102;-69
2023/03/25 00:32:36;;;;;;;17.48;3.03;;;;;;;7.98;100.00;100071.78;5072699;28;20037;-69
2023/03/25 00:35:01;;;;;;;16.10;2.80;;;;;;;8.01;100.00;100069.19;5072394;28;20068;-69
2023/03/25 00:37:27;;;;;;;17.60;3.10;;;;;;;8.04;100.00;100063.91;5072546;28;20037;-70
2023/03/25 00:39:52;;;;;;;16.15;2.85;;;;;;;8.08;100.00;100085.84;5072327;28;20391;-69
2023/03/25 00:42:24;;;;;;;16.02;2.88;;;;;;;8.07;100.00;100070.91;5071093;28;20032;-70
2023/03/25 00:44:50;;;;;;;;;;;;;;;8.23;100.00;100069.19;5073506;28;20028;-70
2023/03/25 00:47:17;;;;;;;17.73;3.15;;;;;;;8.07;100.00;100066.56;5076659;28;19912;-70
2023/03/25 00:49:43;;;;;;;16.52;2.88;;;;;;;7.97;100.00;100073.53;5076458;28;20020;-69
2023/03/25 00:52:09;;;;;;;18.02;3.08;;;;;;;8.03;100.00;100093.75;5076572;28;20532;-70
2023/03/25 00:54:34;;;;;;;16.00;3.03;;;;;;;8.04;100.00;100058.66;5076317;28;20028;-69
2023/03/25 00:57:00;;;;;;;15.18;2.90;;;;;;;8.08;100.00;100073.59;5074980;28;20033;-71
2023/03/25 00:59:25;;;;;;;14.90;3.20;;;;;;;8.06;100.00;100066.56;5076390;28;20033;-69
2023/03/25 01:01:52;;;;;;;15.00;2.80;;;;;;;8.00;100.00;100060.38;5076162;28;20025;-69
2023/03/25 01:04:18;;;;;;;14.80;3.33;;;;;;;8.04;100.00;100061.28;5076079;28;20036;-70
2023/03/25 01:06:43;;;;;;;14.85;2.72;;;;;;;7.95;100.00;100074.41;5076208;28;20046;-69
2023/03/25 01:09:12;;;;;;;15.30;2.90;;;;;;;7.83;100.00;100067.34;5076045;28;20131;-69
2023/03/25 01:11:41;;;;;;;14.05;3.00;;;;;;;7.95;100.00;100091.09;5076084;28;20035;-69
2023/03/25 01:14:11;;;;;;;17.58;3.00;;;;;;;8.00;100.00;100073.53;5076116;28;20445;-69
2023/03/25 01:16:37;;;;;;;12.55;2.90;;;;;;;7.98;100.00;100070.03;5075958;28;20187;-69
2023/03/25 01:19:02;;;;;;;12.93;2.90;;;;;;;8.03;100.00;100067.41;5075681;28;20151;-69
2023/03/25 01:21:28;;;;;;;13.63;3.17;;;;;;;7.90;100.00;100066.50;5076318;28;20037;-70
2023/03/25 01:23:53;;;;;;;15.18;3.30;;;;;;;7.92;100.00;100069.13;5075734;28;20082;-69
2023/03/25 01:26:19;;;;;;;14.25;2.97;;;;;;;7.78;100.00;100055.94;5075708;28;20032;-69
2023/03/25 01:28:44;;;;;;;18.35;3.47;;;;;;;7.79;100.00;100070.84;5075831;28;20021;-69
2023/03/25 01:31:12;;;;;;;16.27;3.20;;;;;;;7.82;100.00;100055.97;5075554;28;20107;-69
2023/03/25 01:33:38;;;;;;;14.38;3.15;;;;;;;7.80;100.00;100073.47;5075707;28;20039;-69
2023/03/25 01:36:08;;;;;;;17.00;3.20;;;;;;;7.76;100.00;100073.47;5075734;28;20031;-70
2023/03/25 01:38:37;;;;;;;15.15;3.10;;;;;;;7.70;100.00;100068.19;5075423;28;20060;-69
2023/03/25 01:41:03;;;;;;;13.50;3.15;;;;;;;7.70;100.00;100073.44;5075428;28;20048;-70
2023/03/25 01:43:29;;;;;;;13.95;3.10;;;;;;;7.57;100.00;100073.41;5075544;28;20031;-70
2023/03/25 01:45:54;;;;;;;17.25;3.30;;;;;;;7.37;100.00;100067.16;5075699;28;20025;-69
2023/03/25 01:48:31;;;;;;;11.63;3.25;;;;;;;7.18;100.00;100072.34;5075253;28;20422;-69
2023/03/25 01:51:18;;;;;;;15.35;3.08;;;;;;;7.15;100.00;100061.81;5071469;28;20224;-70
2023/03/25 01:53:44;;;;;;;12.75;3.25;;;;;;;7.27;100.00;100046.09;5072533;28;20024;-69
2023/03/25 01:56:14;;;;;;;14.05;3.70;;;;;;;7.37;100.00;100062.81;5075037;28;20085;-69
2023/03/25 01:58:40;;;;;;;12.25;3.00;;;;;;;7.43;100.00;100060.19;5074420;28;20421;-69
2023/03/25 02:01:10;;;;;;;12.82;3.20;;;;;;;7.48;100.00;100057.56;5075088;28;20077;-69
2023/03/25 02:03:36;;;;;;;11.32;2.90;;;;;;;7.46;100.00;100059.34;5075422;28;20025;-69
2023/03/25 02:06:07;;;;;;;11.80;2.90;;;;;;;7.51;100.00;100078.63;5075099;28;20024;-69
2023/03/25 02:08:38;;;;;;;11.77;2.90;;;;;;;7.54;100.00;100062.84;5074988;28;20526;-69
2023/03/25 02:11:09;;;;;;;14.90;3.40;;;;;;;7.59;100.00;100060.28;5074919;28;20111;-69
2023/03/25 02:13:38;;;;;;;14.05;3.05;;;;;;;7.41;100.00;100050.53;5075170;28;20467;-69
2023/03/25 02:16:33;;;;;;;14.45;3.47;;;;;;;7.17;100.00;100062.69;5074857;28;20024;-69
2023/03/25 02:19:22;;;;;;;17.60;3.63;;;;;;;6.94;100.00;100060.78;5071113;28;20113;-69
2023/03/25 02:22:26;;;;;;;13.57;3.10;;;;;;;6.77;100.00;100055.44;5073961;28;20476;-69
2023/03/25 02:25:25;;;;;;;15.30;3.20;;;;;;;6.75;100.00;100043.13;5035302;28;20032;-69
2023/03/25 02:27:58;;;;;;;13.40;3.08;;;;;;;6.87;100.00;100045.84;5073886;28;20052;-69
2023/03/25 02:30:33;;;;;;;12.38;3.15;;;;;;;7.01;100.00;100053.81;5074548;28;20024;-70
2023/03/25 02:33:10;;;;;;;16.02;3.33;;;;;;;7.06;100.00;100060.00;5071086;28;20021;-69
2023/03/25 02:35:53;;;;;;;16.17;3.10;;;;;;;7.23;100.00;100046.06;5072026;28;20025;-69
2023/03/25 02:38:37;;;;;;;15.20;3.10;;;;;;;7.29;100.00;100046.97;5074474;28;20096;-69
2023/03/25 02:41:17;;;;;;;13.20;3.00;;;;;;;7.36;100.00;100052.28;5071360;28;20121;-69
2023/03/25 02:43:45;;;;;;;15.38;3.03;;;;;;;7.35;100.00;100050.50;5074483;28;20032;-70
2023/03/25 02:46:15;;;;;;;16.58;3.08;;;;;;;7.39;100.00;100054.91;5074258;28;20032;-69
2023/03/25 02:48:55;;;;;;;14.95;3.42;;;;;;;7.44;100.00;100042.66;5074270;28;20035;-71
2023/03/25 02:51:27;;;;;;;13.57;2.80;;;;;;;7.42;100.00;100047.03;5074153;28;20196;-70
2023/03/25 02:53:55;;;;;;;15.68;3.28;;;;;;;7.21;100.00;100042.53;5074349;28;20032;-71
2023/03/25 02:56:24;;;;;;;14.20;3.28;;;;;;;6.97;100.00;100039.81;5073977;28;20111;-69
2023/03/25 02:58:54;;;;;;;17.08;3.50;;;;;;;6.79;100.00;100032.66;5073903;28;20352;-70
2023/03/25 03:01:21;;;;;;;14.93;3.20;;;;;;;6.93;100.00;100030.13;5074125;28;20112;-69
2023/03/25 03:03:46;;;;;;;17.98;3.55;;;;;;;6.87;100.00;100037.97;5073809;28;20024;-70
2023/03/25 03:06:16;;;;;;;16.40;3.38;;;;;;;6.79;100.00;100034.41;5073848;28;20379;-71
2023/03/25 03:08:47;;;;;;;20.13;3.65;;;;;;;6.74;100.00;100031.78;5073722;28;20031;-69
2023/03/25 03:11:24;;;;;;;18.33;3.70;;;;;;;6.62;100.00;100026.41;5073884;28;20170;-68
2023/03/25 03:13:50;;;;;;;19.25;3.92;;;;;;;6.51;100.00;100028.97;5073676;28;20054;-69
2023/03/25 03:16:31;;;;;;;19.42;4.32;;;;;;;6.50;100.00;100032.44;5073584;28;20032;-70
2023/03/25 03:19:07;;;;;;;19.30;3.75;;;;;;;6.42;100.00;100021.00;5069324;28;20423;-69
2023/03/25 03:21:42;;;;;;;21.50;3.97;;;;;;;6.38;100.00;100016.59;5070546;28;20025;-69
2023/03/25 03:24:25;;;;;;;20.08;4.00;;;;;;;6.36;100.00;100023.56;5072351;28;20024;-71
2023/03/25 03:27:06;;;;;;;20.23;3.97;;;;;;;6.36;100.00;100027.06;5073581;28;20017;-70
2023/03/25 03:29:37;;;;;;;19.08;3.90;;;;;;;6.40;100.00;100025.38;5070313;28;20036;-70
2023/03/25 03:32:17;;;;;;;17.38;3.70;;;;;;;6.33;100.00;100034.91;5073390;28;20154;-69
2023/03/25 03:34:45;;;;;;;18.40;4.00;;;;;;;6.36;100.00;100037.56;5073304;28;20021;-69
2023/03/25 03:37:16;;;;;;;21.38;4.10;;;;;;;6.43;100.00;100042.00;5073071;28;20069;-70
2023/03/25 03:39:45;;;;;;;20.88;4.30;;;;;;;6.40;100.00;100030.63;5073298;28;20029;-70
2023/03/25 03:42:22;;;;;;;20.50;4.07;;;;;;;6.37;100.00;100035.84;5073072;28;20116;-69
2023/03/25 03:44:54;;;;;;;18.42;3.55;;;;;;;6.39;100.00;100029.75;5071774;28;20124;-69
2023/03/25 03:47:25;;;;;;;18.97;3.77;;;;;;;6.51;100.00;100034.22;5073079;28;20387;-70
2023/03/25 03:49:57;;;;;;;20.42;3.78;;;;;;;6.51;100.00;100030.69;5073199;28;20016;-70
2023/03/25 03:52:39;;;;;;;20.23;3.90;;;;;;;6.40;100.00;100030.63;5073057;28;20024;-70
2023/03/25 03:55:28;;;;;;;18.50;3.60;;;;;;;6.36;100.00;100020.94;5070200;28;20383;-69
2023/03/25 03:58:00;;;;;;;19.63;3.60;;;;;;;6.32;100.00;100051.56;5072490;28;20048;-69
2023/03/25 04:00:35;;;;;;;19.70;3.90;;;;;;;6.20;100.00;100025.19;5072833;28;20028;-70
2023/03/25 04:03:13;;;;;;;18.40;3.72;;;;;;;6.24;100.00;100037.47;5069381;28;20036;-70
2023/03/25 04:05:42;;;;;;;19.85;3.60;;;;;;;6.28;100.00;100032.25;5070360;28;20027;-70
2023/03/25 04:08:17;;;;;;;19.08;3.65;;;;;;;6.34;100.00;100035.81;5072992;28;20036;-70
2023/03/25 04:10:51;;;;;;;19.85;3.47;;;;;;;6.44;100.00;100041.16;5072942;28;20063;-70
2023/03/25 04:13:20;;;;;;;17.35;3.28;;;;;;;6.42;100.00;100039.38;5072797;28;20028;-69
2023/03/25 04:15:47;;;;;;;20.38;3.30;;;;;;;6.44;100.00;100035.03;5072594;28;20108;-69
2023/03/25 04:18:12;;;;;;;19.73;3.42;;;;;;;6.50;100.00;100019.31;5072677;28;20130;-70
2023/03/25 04:20:43;;;;;;;16.80;3.40;;;;;;;6.50;100.00;100036.84;5071931;28;20415;-70
2023/03/25 04:23:15;;;;;;;16.38;3.42;;;;;;;6.51;100.00;100034.22;5072591;28;20053;-69
2023/03/25 04:25:42;;;;;;;17.27;3.23;;;;;;;6.50;100.00;100031.59;5072788;28;20166;-69
2023/03/25 04:28:12;;;;;;;16.50;3.15;;;;;;;6.45;100.00;100035.03;5072366;28;20058;-71
2023/03/25 04:30:38;;;;;;;18.25;3.38;;;;;;;6.42;100.00;100031.50;5071395;28;20448;-71
2023/03/25 04:33:05;;;;;;;18.85;3.42;;;;;;;6.47;100.00;100032.44;5072663;28;20438;-71
2023/03/25 04:35:31;;;;;;;18.48;3.22;;;;;;;6.57;100.00;100015.88;5071468;28;20032;-71
2023/03/25 04:37:58;;;;;;;18.90;3.00;;;;;;;6.51;100.00;100022.81;5068349;28;20083;-71
2023/03/25 04:40:24;;;;;;;16.75;3.05;;;;;;;6.57;100.00;100023.75;5072536;28;20024;-71
2023/03/25 04:42:52;;;;;;;15.13;2.97;;;;;;;6.69;100.00;100035.22;5072610;28;20032;-71
2023/03/25 04:45:18;;;;;;;16.48;3.00;;;;;;;6.74;100.00;100021.25;5072297;28;20024;-71
2023/03/25 04:47:46;;;;;;;16.10;3.40;;;;;;;6.56;100.00;100050.00;5072832;28;20440;-70
2023/03/25 04:50:23;;;;;;;17.05;3.40;;;;;;;6.46;100.00;100043.78;5072520;28;20025;-71
2023/03/25 04:52:50;;;;;;;18.58;3.60;;;;;;;6.33;100.00;100034.06;5072341;28;20032;-71
2023/03/25 04:55:19;;;;;;;18.48;3.50;;;;;;;6.23;100.00;100023.47;5072266;28;20027;-71
2023/03/25 04:57:49;;;;;;;17.60;3.42;;;;;;;6.17;100.00;100033.91;5072296;28;20025;-71
2023/03/25 05:00:18;;;;;;;18.75;3.55;;;;;;;6.17;100.00;100033.03;5070864;28;20391;-71
2023/03/25 05:02:49;;;;;;;18.45;3.38;;;;;;;6.09;100.00;100031.22;5072411;28;20028;-71
2023/03/25 05:05:19;;;;;;;16.70;3.60;;;;;;;6.18;100.00;100021.69;5072099;28;20467;-70
2023/03/25 05:07:48;;;;;;;17.58;3.78;;;;;;;6.19;100.00;100039.16;5072297;28;20467;-69
2023/03/25 05:10:14;;;;;;;18.65;3.72;;;;;;;6.11;100.00;100033.84;5072160;28;20032;-69
2023/03/25 05:12:39;;;;;;;19.70;4.10;;;;;;;6.10;100.00;100043.47;5072055;28;20052;-70
2023/03/25 05:15:06;;;;;;;16.17;3.45;;;;;;;6.09;100.00;100033.84;5072188;28;20102;-69
2023/03/25 05:17:32;;;;;;;19.02;3.60;;;;;;;6.03;100.00;100030.25;5071922;28;20033;-69
2023/03/25 05:19:57;;;;;;;17.95;3.80;;;;;;;6.01;100.00;100040.75;5067727;28;20056;-71
2023/03/25 05:22:22;;;;;;;19.35;3.75;;;;;;;6.02;100.00;100031.16;5072223;28;20388;-71
2023/03/25 05:24:52;;;;;;;20.75;4.05;;;;;;;6.01;100.00;100042.50;5071957;28;20410;-72
2023/03/25 05:27:19;;;;;;;17.50;3.75;;;;;;;6.08;100.00;100036.44;5071939;28;20487;-70
2023/03/25 05:29:45;;;;;;;18.40;3.55;;;;;;;6.09;100.00;100056.59;5072308;28;20037;-70
2023/03/25 05:32:16;;;;;;;19.45;3.70;;;;;;;6.11;100.00;100052.22;5074242;28;20036;-70
2023/03/25 05:34:47;;;;;;;15.77;3.47;;;;;;;6.10;100.00;100060.94;5075568;28;20051;-70
2023/03/25 05:37:13;;;;;;;18.75;3.75;;;;;;;6.20;100.00;100064.56;5075686;28;20028;-71
2023/03/25 05:39:38;;;;;;;18.67;3.45;;;;;;;6.24;100.00;100053.22;5075555;28;20441;-70
2023/03/25 05:42:03;;;;;;;13.88;3.17;;;;;;;6.22;100.00;100026.09;5075680;28;20036;-70
2023/03/25 05:44:29;;;;;;;18.40;3.53;;;;;;;6.31;100.00;100047.16;5075584;28;20348;-70
2023/03/25 05:46:54;;;;;;;16.85;3.13;;;;;;;6.32;100.00;100048.03;5075361;28;20035;-70
2023/03/25 05:49:20;;;;;;;17.88;3.33;;;;;;;6.32;100.00;100046.31;5074111;28;20472;-70
2023/03/25 05:51:48;;;;;;;17.70;3.28;;;;;;;6.34;100.00;100056.81;5075581;28;20029;-70
2023/03/25 05:54:14;;;;;;;15.98;3.42;;;;;;;6.45;100.00;100050.78;5075170;28;20543;-70
2023/03/25 05:56:40;;;;;;;18.15;3.50;;;;;;;6.50;100.00;100057.84;5075439;28;20040;-70
2023/03/25 05:59:07;;;;;;;16.15;3.40;;;;;;;6.59;100.00;100052.66;5075360;28;20089;-70
2023/03/25 06:01:32;;;;;;;19.13;3.80;;;;;;;6.54;100.00;100050.00;5075166;28;20436;-70
2023/03/25 06:03:59;;;;;;;16.48;3.38;;;;;;;6.55;100.00;100062.25;5070991;28;20151;-70
2023/03/25 06:06:26;;;;;;;19.50;3.78;;;;;;;6.58;100.00;100082.41;5075201;28;20383;-69
2023/03/25 06:08:51;;;;;;;16.98;3.40;;;;;;;6.55;100.00;100080.66;5074959;28;20029;-70
2023/03/25 06:11:18;;;;;;;19.65;3.45;;;;;;;6.49;100.00;100092.84;5075191;28;20050;-70
2023/03/25 06:13:48;;;;;;;18.95;3.70;;;;;;;6.50;100.00;100084.97;5075041;28;20387;-70
2023/03/25 06:16:17;;;;;;;17.80;3.25;;;;;;;6.53;100.00;100079.72;5074912;28;20031;-70
2023/03/25 06:18:49;;;;;;;17.38;3.40;;;;;;;6.56;100.00;100090.25;5074649;28;20082;-70
2023/03/25 06:21:19;;;;;;;18.92;3.63;;;;;;;6.61;100.00;100099.06;5074988;28;20029;-70
2023/03/25 06:23:47;;;;;;;17.60;3.30;;;;;;;6.71;100.00;100089.50;5073619;28;20020;-70
2023/03/25 06:26:13;;;;;;;20.38;3.92;;;;;;;6.82;100.00;100089.59;5074649;28;20036;-71
2023/03/25 06:28:38;;;;;;;18.75;3.70;;;;;;;6.85;100.00;100079.13;5074549;28;20021;-71
2023/03/25 06:31:06;;;;;;;19.80;3.60;;;;;;;6.89;100.00;100078.28;5074960;28;20106;-71
2023/03/25 06:33:31;;;;;;;17.55;3.38;;;;;;;6.87;100.00;100087.00;5074674;28;20037;-72
2023/03/25 06:35:57;;;;;;;18.52;3.45;;;;;;;6.90;100.00;100072.16;5074454;28;20082;-71
2023/03/25 06:38:22;;;;;;;17.52;3.35;;;;;;;6.92;100.00;100067.78;5074583;28;20621;-72
2023/03/25 06:40:47;;;;;;;19.83;3.75;;;;;;;7.00;100.00;100074.84;5074331;28;20486;-71
2023/03/25 06:43:13;;;;;;;19.17;3.53;;;;;;;7.04;100.00;100079.25;5073893;28;20379;-72
2023/03/25 06:45:38;;;;;;;19.85;3.60;;;;;;;7.11;100.00;100108.22;5074277;28;20040;-71
2023/03/25 06:48:04;;;;;;;20.35;3.70;;;;;;;7.27;100.00;100093.41;5074255;28;20430;-71
2023/03/25 06:50:30;;;;;;;17.55;3.60;;;;;;;7.35;100.00;100093.44;5074656;28;20032;-72
2023/03/25 06:52:56;;;;;;;19.88;3.75;;;;;;;7.40;100.00;100090.88;5074169;28;20077;-72
2023/03/25 06:55:21;;;;;;;19.10;3.65;;;;;;;7.43;100.00;100101.41;5074047;28;20020;-72
2023/03/25 06:57:47;;;;;;;17.98;3.30;;;;;;;7.44;100.00;100097.88;5074156;28;20033;-72
2023/03/25 07:00:12;;;;;;;20.88;3.78;;;;;;;7.50;100.00;100105.81;5074027;28;20024;-71
2023/03/25 07:02:38;;;;;;;18.95;3.78;;;;;;;7.56;100.00;100097.94;5073926;28;20090;-72
2023/03/25 07:05:04;;;;;;;19.38;3.97;;;;;;;7.64;100.00;100106.75;5074113;28;20029;-71
2023/03/25 07:07:30;;;;;;;17.10;3.60;;;;;;;7.64;100.00;100101.47;5073796;28;20036;-71
2023/03/25 07:09:55;;;;;;;19.83;3.67;;;;;;;7.45;100.00;100110.16;5072484;28;20476;-72
2023/03/25 07:12:24;;;;;;;21.02;3.97;;;;;;;7.43;100.00;100102.28;5073980;28;20024;-71
2023/03/25 07:14:54;;;;;;;19.92;3.88;;;;;;;7.22;100.00;100100.38;5073626;28;20058;-70
2023/03/25 07:17:21;;;;;;;18.70;3.80;;;;;;;7.11;100.00;100097.69;5073531;28;20032;-70
2023/03/25 07:19:47;;;;;;;19.80;3.70;;;;;;;7.21;100.00;100090.75;5073636;28;20437;-70
2023/03/25 07:22:12;;;;;;;21.88;4.43;;;;;;;7.37;100.00;100103.97;5073574;28;20020;-74
2023/03/25 07:24:37;;;;;;;20.20;3.85;;;;;;;7.20;100.00;100099.50;5073522;28;20093;-71
2023/03/25 07:27:03;;;;;;;19.88;3.70;;;;;;;7.00;100.00;100102.00;5073648;28;20505;-71
2023/03/25 07:29:28;;;;;;;22.85;4.00;;;;;;;6.94;100.00;100102.81;5073381;28;20037;-71
2023/03/25 07:31:54;;;;;;;21.65;3.95;;;;;;;6.92;100.00;100109.81;5073598;28;20048;-71
2023/03/25 07:34:19;;;;;;;21.42;4.35;;;;;;;6.83;100.00;100112.41;5073415;28;20027;-70
2023/03/25 07:36:45;;;;;;;21.42;3.72;;;;;;;6.82;100.00;100117.63;5073306;28;20131;-71
2023/03/25 07:39:10;;;;;;;20.08;3.72;;;;;;;6.91;100.00;100117.69;5073233;28;20024;-70
2023/03/25 07:41:35;;;;;;;21.63;3.80;;;;;;;6.93;100.00;100116.84;5073413;28;20047;-71
2023/03/25 07:44:01;;;;;;;18.98;3.80;;;;;;;7.03;100.00;100122.16;5073097;28;20025;-70
2023/03/25 07:46:26;;;;;;;24.27;4.00;;;;;;;7.00;100.00;100127.41;5073556;28;20068;-70
2023/03/25 07:48:52;;;;;;;20.70;3.90;;;;;;;6.85;100.00;100115.91;5073106;28;20069;-71
2023/03/25 07:51:17;;;;;;;22.77;4.00;;;;;;;6.77;100.00;100125.47;5072891;28;20050;-71
2023/03/25 07:53:45;;;;;;;21.27;3.83;;;;;;;6.76;100.00;100126.34;5073055;28;20153;-70
2023/03/25 07:56:11;;;;;;;20.05;3.70;;;;;;;6.73;100.00;100128.94;5072054;28;20103;-71
2023/03/25 07:58:36;;;;;;;23.80;4.45;;;;;;;6.80;100.00;100130.72;5072800;28;20033;-70
2023/03/25 08:01:02;;;;;;;23.92;4.57;;;;;;;6.89;100.00;100138.72;5073203;28;20035;-70
2023/03/25 08:03:28;;;;;;;22.77;4.20;;;;;;;7.15;100.00;100138.91;5072772;28;20021;-70
2023/03/25 08:05:53;;;;;;;21.40;4.25;;;;;;;7.44;100.00;100137.31;5072980;28;20102;-71
2023/03/25 08:08:18;;;;;;;21.58;4.32;;;;;;;7.84;100.00;100120.00;5073052;28;20036;-71
2023/03/25 08:10:46;;;;;;;21.58;4.43;;;;;;;8.06;100.00;100146.41;5072698;28;20383;-71
2023/03/25 08:13:12;;;;;;;21.05;4.40;;;;;;;8.08;100.00;100154.28;5072751;28;20111;-71
2023/03/25 08:15:38;;;;;;;19.05;3.63;;;;;;;8.02;100.00;100150.78;5071493;28;20029;-70
2023/03/25 08:18:05;;;;;;;22.23;3.80;;;;;;;7.98;100.00;100191.13;5072281;28;20391;-70
2023/03/25 08:20:35;;;;;;;20.17;3.72;;;;;;;7.97;100.00;100146.38;5068644;28;20035;-71
2023/03/25 08:23:01;;;;;;;23.17;4.13;;;;;;;7.88;100.00;100144.59;5068409;28;20052;-71
2023/03/25 08:25:28;;;;;;;20.50;3.90;;;;;;;7.66;100.00;100160.25;5072491;28;20060;-71
2023/03/25 08:27:53;;;;;;;22.23;4.18;;;;;;;7.53;100.00;100170.69;5072417;28;20020;-71
2023/03/25 08:30:19;;;;;;;23.80;4.80;;;;;;;7.38;100.00;100177.59;5072692;28;20031;-70
2023/03/25 08:32:53;;;;;;;23.63;4.88;;;;;;;7.17;100.00;100159.94;5072537;28;20063;-71
2023/03/25 08:35:19;;;;;;;23.77;5.00;;;;;;;7.01;100.00;100176.47;5072346;28;20033;-71
2023/03/25 08:37:44;;;;;;;23.90;5.07;;;;;;;6.92;100.00;100183.41;5072544;28;20064;-71
2023/03/25 08:40:10;;;;;;;22.08;4.43;;;;;;;6.91;100.00;100165.88;5072327;28;20437;-71
2023/03/25 08:42:36;;;;;;;24.98;5.20;;;;;;;6.95;100.00;100169.41;5072369;28;20036;-71
2023/03/25 08:45:03;;;;;;;28.17;5.03;;;;;;;6.94;100.00;100184.28;5072589;28;20074;-71
2023/03/25 08:47:29;;;;;;;24.85;5.25;;;;;;;6.95;100.00;100175.53;5072243;28;20031;-71
2023/03/25 08:49:54;;;;;;;23.48;5.13;;;;;;;7.00;100.00;100177.34;5072325;28;20037;-71
2023/03/25 08:52:20;;;;;;;27.90;5.40;;;;;;;7.11;100.00;100179.19;5072452;28;20029;-71
2023/03/25 08:54:45;;;;;;;24.30;4.80;;;;;;;7.18;100.00;100168.69;5072271;28;20468;-71
2023/03/25 08:57:11;;;;;;;24.55;5.05;;;;;;;7.28;100.00;100174.06;5072106;28;20060;-71
2023/03/25 08:59:36;;;;;;;23.17;4.80;;;;;;;7.33;100.00;100174.09;5072311;28;20025;-71
2023/03/25 09:02:02;;;;;;;24.23;5.05;;;;;;;7.31;100.00;100181.06;5072209;28;20029;-71
2023/03/25 09:04:28;;;;;;;23.98;4.97;;;;;;;7.31;100.00;100170.53;5072048;28;20074;-71
2023/03/25 09:06:53;;;;;;;24.88;5.43;;;;;;;7.71;100.00;100159.41;5074362;28;20475;-71
2023/03/25 09:09:18;;;;;;;24.50;5.45;;;;;;;8.25;100.00;100175.44;5076102;28;20115;-71
2023/03/25 09:11:44;;;;;;;23.92;5.18;;;;;;;8.44;100.00;100173.72;5076187;28;20028;-72
2023/03/25 09:14:10;;;;;;;24.45;5.35;;;;;;;8.62;100.00;100172.91;5075166;28;20056;-71
2023/03/25 09:16:35;;;;;;;23.20;4.78;;;;;;;8.85;100.00;100165.94;5076177;28;20017;-71
2023/03/25 09:19:02;;;;;;;23.65;5.03;;;;;;;8.66;100.00;100159.72;5075968;28;20068;-72
2023/03/25 09:21:27;;;;;;;22.25;4.75;;;;;;;8.63;100.00;100165.00;5075935;28;20029;-71
2023/03/25 09:23:53;;;;;;;23.50;5.13;;;;;;;8.86;100.00;100169.44;5075799;28;20074;-71
2023/03/25 09:26:18;;;;;;;24.20;4.55;;;;;;;9.11;100.00;100156.25;5074832;28;20487;-71
2023/03/25 09:28:44;;;;;;;21.70;4.50;;;;;;;9.38;100.00;100161.50;5072987;28;20021;-75
2023/03/25 09:31:09;;;;;;;24.83;4.70;;;;;;;9.67;100.00;100164.94;5066343;28;20549;-75
2023/03/25 09:33:35;;;;;;;22.95;4.85;;;;;;;9.93;100.00;100185.97;5069641;28;20020;-74
2023/03/25 09:36:02;;;;;;;21.00;4.03;;;;;;;10.42;100.00;100175.22;5075975;28;20480;-76
2023/03/25 09:38:28;;;;;;;24.38;4.88;;;;;;;10.32;100.00;100188.47;5071124;28;20482;-78
2023/03/25 09:40:53;;;;;;;23.70;4.63;;;;;;;10.71;100.00;100179.44;5069001;28;20028;-73
2023/03/25 09:43:30;;;;;;;22.83;4.70;;;;;;;10.91;100.00;100196.97;5068340;28;20056;-74
2023/03/25 09:45:57;;;;;;;20.85;3.97;;;;;;;10.43;100.00;100181.41;5063162;28;20037;-73
2023/03/25 09:48:35;;;;;;;23.00;4.75;;;;;;;10.16;100.00;100175.31;5067211;28;20036;-74
2023/03/25 09:51:11;;;;;;;23.33;4.50;;;;;;;10.54;100.00;100182.22;5070314;28;20082;-75
2023/03/25 09:54:12;;;;;;;23.48;5.00;;;;;;;11.02;100.00;100192.44;5065540;28;20460;-71
2023/03/25 09:56:40;;;;;;;21.45;4.47;;;;;;;11.79;100.00;100185.56;5063564;28;20029;-73
2023/03/25 09:59:12;;;;;;;21.10;4.63;;;;;;;11.95;100.00;100197.75;5068432;28;20060;-75
2023/03/25 10:01:43;;;;;;;21.88;4.85;;;;;;;10.89;100.00;100202.25;5065744;28;20430;-73
2023/03/25 10:04:51;;;;;;;23.40;4.80;;;;;;;10.61;100.00;100188.31;5075817;28;20056;-74
2023/03/25 10:07:32;;;;;;;23.95;5.05;;;;;;;11.28;100.00;100184.28;5071607;28;20383;-73
2023/03/25 10:10:25;;;;;;;21.25;4.38;;;;;;;10.41;100.00;100168.19;5076937;28;20024;-72
2023/03/25 10:13:06;;;;;;;23.45;4.82;;;;;;;10.86;100.00;100177.59;5073971;28;20024;-72
2023/03/25 10:15:52;;;;;;;22.38;4.93;;;;;;;11.69;100.00;100174.19;5068998;28;20016;-74
2023/03/25 10:18:27;;;;;;;25.02;5.10;;;;;;;12.50;100.00;100185.56;5069269;28;20190;-74
2023/03/25 10:20:58;;;;;;;24.00;5.20;;;;;;;12.29;100.00;100175.25;5073551;28;20542;-74
2023/03/25 10:24:03;;;;;;;24.33;5.30;;;;;;;12.31;100.00;100178.78;5069631;28;20034;-71
2023/03/25 10:26:39;;;;;;;21.92;4.68;;;;;;;11.70;100.00;100157.41;5076086;28;20071;-73
2023/03/25 10:29:11;;;;;;;24.17;5.47;;;;;;;11.40;100.00;100161.25;5069253;28;20028;-72
2023/03/25 10:31:46;;;;;;;23.10;4.72;;;;;;;10.81;100.00;100183.78;5070795;28;20028;-73
2023/03/25 10:34:17;;;;;;;22.50;4.93;;;;;;;10.16;100.00;100171.81;5072680;28;20022;-73
2023/03/25 10:36:55;;;;;;;23.30;5.30;;;;;;;10.07;100.00;100189.44;5065718;28;20029;-74
2023/03/25 10:39:21;;;;;;;22.45;4.70;;;;;;;10.09;100.00;100179.75;5071604;28;20024;-75
2023/03/25 10:42:23;;;;;;;25.10;5.15;;;;;;;10.15;100.00;100183.25;5070287;28;20086;-72
2023/03/25 10:44:49;;;;;;;25.02;4.97;;;;;;;10.29;100.00;100192.88;5062938;28;20041;-72
2023/03/25 10:47:18;;;;;;;22.13;4.80;;;;;;;10.66;100.00;100197.13;5073344;28;20023;-72
2023/03/25 10:49:47;;;;;;;22.98;4.82;;;;;;;10.35;100.00;100199.91;5066944;28;20091;-73
2023/03/25 10:52:14;;;;;;;23.08;4.75;;;;;;;10.41;100.00;100183.16;5073664;28;20078;-74
2023/03/25 10:54:43;;;;;;;22.77;4.88;;;;;;;11.20;100.00;100193.19;5066737;28;20457;-72
2023/03/25 10:57:15;;;;;;;21.60;4.50;;;;;;;11.31;100.00;100207.19;5065435;28;20059;-71
2023/03/25 10:59:57;;;;;;;20.40;3.97;;;;;;;11.32;100.00;100190.44;5066021;28;20497;-72
2023/03/25 11:02:26;;;;;;;20.75;3.78;;;;;;;11.84;100.00;100189.03;5068413;28;20498;-72
2023/03/25 11:04:55;;;;;;;21.08;3.88;;;;;;;12.08;100.00;100185.25;5078432;28;20378;-71
2023/03/25 11:07:33;;;;;;;20.52;3.88;;;;;;;12.21;100.00;100194.78;5072188;28;20021;-73
2023/03/25 11:10:20;;;;;;;20.90;3.75;;;;;;;12.15;100.00;100205.47;5068164;28;20030;-73
2023/03/25 11:12:48;;;;;;;18.98;3.00;;;;;;;11.73;100.00;100234.16;5071519;28;20035;-71
2023/03/25 11:15:29;;;;;;;17.85;3.58;;;;;;;12.15;100.00;100226.66;5066459;28;20046;-73
2023/03/25 11:18:17;;;;;;;18.63;3.03;;;;;;;12.58;100.00;100224.34;5065507;28;20527;-73
2023/03/25 11:20:59;;;;;;;19.52;3.20;;;;;;;13.13;99.58;100217.38;5069114;28;20548;-71
2023/03/25 11:23:33;;;;;;;18.83;2.95;;;;;;;12.50;92.64;100221.81;5069559;28;20111;-72
2023/03/25 11:26:18;;;;;;;16.15;3.08;;;;;;;12.14;91.02;100200.19;5072888;28;20094;-71
2023/03/25 11:28:47;;;;;;;18.00;3.00;;;;;;;12.13;86.62;100201.97;5069769;28;20029;-72